Time;durP1;ratioP1;P1;durP2;ratioP2;P2;SDS_P1;SDS_P2;PMS_P1;PMS_P2;Temp;Humidity;BMP_temperature;BMP_pressure;BME280_temperature;BME280_humidity;BME280_pressure;Samples;Min_cycle;Max_cycle;Signal;HPM_P1;HPM_P2
2021/08/28 00:03:37;;;;;;;1.75;0.90;;;17.40;75.00;;;;;;10132693;28;20036;-60
2021/08/28 00:08:27;;;;;;;2.45;1.13;;;17.50;75.10;;;;;;10132301;28;20044;-59
2021/08/28 00:13:18;;;;;;;1.95;1.00;;;17.30;75.30;;;;;;10131495;28;20024;-59
2021/08/28 00:18:09;;;;;;;2.75;1.20;;;17.40;75.80;;;;;;10125312;28;20032;-59
2021/08/28 00:23:06;;;;;;;1.65;1.00;;;17.20;75.70;;;;;;10132743;28;20032;-59
2021/08/28 00:27:57;;;;;;;1.35;1.10;;;17.30;75.80;;;;;;10134006;28;20040;-58
2021/08/28 00:32:48;;;;;;;6.70;1.65;;;17.50;75.80;;;;;;10131417;28;20102;-59
2021/08/28 00:37:38;;;;;;;2.53;1.13;;;17.50;75.60;;;;;;10132831;28;20679;-59
2021/08/28 00:42:29;;;;;;;3.17;1.30;;;17.40;75.80;;;;;;10128903;28;20032;-60
2021/08/28 00:47:20;;;;;;;3.10;1.63;;;17.40;75.80;;;;;;10131101;28;20040;-58
2021/08/28 00:52:11;;;;;;;4.28;1.50;;;17.20;76.20;;;;;;10139327;28;20071;-59
2021/08/28 00:57:03;;;;;;;3.53;1.38;;;17.10;76.30;;;;;;10139227;28;20024;-59
2021/08/28 01:01:54;;;;;;;2.50;1.00;;;17.00;77.00;;;;;;10132903;28;20281;-60
2021/08/28 01:06:56;;;;;;;4.53;1.10;;;17.00;77.10;;;;;;10138970;28;20184;-59
2021/08/28 01:11:52;;;;;;;3.13;2.10;;;16.90;77.10;;;;;;10134359;28;20116;-59
2021/08/28 01:16:52;;;;;;;4.45;1.38;;;16.80;77.30;;;;;;10136186;28;20124;-60
2021/08/28 01:21:44;;;;;;;7.38;1.92;;;16.70;77.70;;;;;;10142063;28;20032;-59
2021/08/28 01:26:53;;;;;;;1.60;0.88;;;16.70;77.90;;;;;;10139527;28;20067;-59
2021/08/28 01:31:46;;;;;;;2.30;1.50;;;16.90;77.90;;;;;;10131901;28;20437;-60
2021/08/28 01:36:37;;;;;;;4.32;1.50;;;16.90;77.80;;;;;;10136772;28;20028;-59
2021/08/28 01:41:28;;;;;;;2.35;1.15;;;17.00;77.90;;;;;;10133821;28;20050;-59
2021/08/28 01:46:19;;;;;;;5.10;1.10;;;16.90;77.70;;;;;;10138310;28;20058;-60
2021/08/28 01:51:09;;;;;;;1.90;1.55;;;16.80;77.70;;;;;;10137138;28;20028;-60
2021/08/28 01:56:00;;;;;;;2.38;1.45;;;16.70;78.10;;;;;;10129030;28;20032;-59
2021/08/28 02:00:51;;;;;;;3.95;1.70;;;16.70;78.00;;;;;;10132598;28;20035;-58
2021/08/28 02:05:47;;;;;;;1.77;1.17;;;16.80;78.00;;;;;;10134107;28;20239;-58
2021/08/28 02:10:51;;;;;;;3.50;1.40;;;16.70;78.20;;;;;;10133413;28;20032;-58
2021/08/28 02:15:49;;;;;;;3.08;1.55;;;16.60;78.10;;;;;;10133114;28;20074;-59
2021/08/28 02:20:44;;;;;;;1.73;1.25;;;16.80;78.40;;;;;;10136748;28;20020;-59
2021/08/28 02:25:53;;;;;;;4.60;1.53;;;16.80;78.40;;;;;;10138026;28;20072;-59
2021/08/28 02:30:45;;;;;;;1.80;1.15;;;16.80;78.20;;;;;;10137901;28;20082;-60
2021/08/28 02:35:37;;;;;;;2.55;1.85;;;16.70;78.40;;;;;;10134715;28;20131;-60
2021/08/28 02:40:28;;;;;;;2.65;1.25;;;16.60;78.70;;;;;;10135913;28;20020;-58
2021/08/28 02:45:22;;;;;;;4.97;1.50;;;16.50;78.90;;;;;;10135647;28;20028;-58
2021/08/28 02:50:14;;;;;;;2.75;1.50;;;16.40;79.20;;;;;;10134982;28;20059;-59
2021/08/28 02:55:06;;;;;;;3.85;1.73;;;16.40;79.40;;;;;;10137150;28;20025;-58
2021/08/28 02:59:58;;;;;;;2.67;1.17;;;16.40;79.40;;;;;;10133581;28;20043;-60
2021/08/28 03:04:49;;;;;;;3.08;1.58;;;16.50;79.30;;;;;;10126969;28;20040;-58
2021/08/28 03:09:40;;;;;;;3.88;1.70;;;16.50;79.40;;;;;;10123640;28;20479;-59
2021/08/28 03:14:31;;;;;;;10.52;2.22;;;16.50;79.60;;;;;;10134213;28;20029;-59
2021/08/28 03:19:24;;;;;;;2.40;1.70;;;16.50;80.40;;;;;;10130845;28;20047;-59
2021/08/28 03:24:19;;;;;;;6.93;1.42;;;16.40;79.90;;;;;;10133835;28;20348;-59
2021/08/28 03:29:10;;;;;;;3.50;1.50;;;16.40;80.20;;;;;;10133202;28;20043;-59
2021/08/28 03:34:01;;;;;;;2.70;1.67;;;16.50;80.20;;;;;;10136895;28;20206;-59
2021/08/28 03:38:53;;;;;;;3.70;1.55;;;16.50;80.20;;;;;;10133098;28;20024;-61
2021/08/28 03:43:45;;;;;;;3.28;1.95;;;16.50;80.30;;;;;;10130659;28;20078;-59
2021/08/28 03:48:38;;;;;;;1.42;1.05;;;16.40;80.30;;;;;;10131881;28;20049;-59
2021/08/28 03:53:28;;;;;;;8.75;2.13;;;16.30;80.80;;;;;;10124315;28;20099;-59
2021/08/28 03:58:19;;;;;;;1.92;1.23;;;16.50;80.70;;;;;;10124115;28;20021;-59
2021/08/28 04:03:09;;;;;;;2.35;1.23;;;16.60;80.40;;;;;;10132262;28;20170;-58
2021/08/28 04:08:00;;;;;;;4.05;1.60;;;16.60;80.40;;;;;;10124916;28;20086;-60
2021/08/28 04:12:51;;;;;;;4.13;2.05;;;16.40;80.60;;;;;;10136897;28;20047;-58
2021/08/28 04:17:41;;;;;;;2.78;1.85;;;16.30;81.30;;;;;;10133113;28;20116;-57
2021/08/28 04:22:32;;;;;;;5.93;1.85;;;16.40;81.10;;;;;;10132200;28;20040;-58
2021/08/28 04:27:22;;;;;;;3.78;1.80;;;16.30;81.20;;;;;;10127355;28;20041;-58
2021/08/28 04:32:13;;;;;;;3.28;1.50;;;16.30;81.40;;;;;;10129307;28;20047;-59
2021/08/28 04:37:04;;;;;;;3.53;1.50;;;16.30;81.40;;;;;;10132916;28;20032;-58
2021/08/28 04:41:54;;;;;;;6.45;2.30;;;16.40;81.40;;;;;;10132328;28;20032;-59
2021/08/28 04:46:45;;;;;;;2.63;1.95;;;16.40;81.50;;;;;;10130292;28;20037;-58
2021/08/28 04:51:36;;;;;;;3.33;1.58;;;16.20;81.70;;;;;;10130090;28;20035;-59
2021/08/28 04:56:26;;;;;;;5.78;2.17;;;16.20;82.10;;;;;;10129666;28;20213;-59
2021/08/28 05:01:17;;;;;;;7.25;1.85;;;16.10;82.10;;;;;;10130756;28;20028;-59
2021/08/28 05:06:09;;;;;;;3.75;2.03;;;16.20;82.30;;;;;;10126893;28;21434;-59
2021/08/28 05:11:03;;;;;;;7.30;1.92;;;16.20;82.20;;;;;;10130928;28;20104;-58
2021/08/28 05:15:53;;;;;;;4.88;1.70;;;16.20;82.40;;;;;;10129893;28;20478;-61
2021/08/28 05:20:44;;;;;;;3.47;1.67;;;16.10;82.70;;;;;;10130028;28;20039;-61
2021/08/28 05:25:35;;;;;;;3.65;1.83;;;16.20;82.60;;;;;;10128767;28;20036;-61
2021/08/28 05:30:25;;;;;;;4.70;2.45;;;16.30;82.90;;;;;;10128644;28;20449;-59
2021/08/28 05:35:16;;;;;;;5.20;2.10;;;16.30;82.80;;;;;;10135770;28;20493;-61
2021/08/28 05:40:08;;;;;;;6.60;2.25;;;16.30;83.10;;;;;;10136465;28;20048;-60
2021/08/28 05:44:58;;;;;;;3.58;2.10;;;16.20;82.90;;;;;;10137408;28;20041;-61
2021/08/28 05:49:49;;;;;;;3.78;1.95;;;16.30;83.10;;;;;;10137125;28;20027;-59
2021/08/28 05:54:40;;;;;;;3.35;2.22;;;16.40;83.00;;;;;;10134042;28;20556;-59
2021/08/28 05:59:30;;;;;;;2.67;1.95;;;16.40;83.10;;;;;;10133496;28;20602;-59
2021/08/28 06:04:22;;;;;;;4.07;2.30;;;16.60;82.80;;;;;;10142283;28;20067;-60
2021/08/28 06:09:13;;;;;;;4.40;2.50;;;16.70;82.80;;;;;;10132648;28;20059;-58
2021/08/28 06:14:03;;;;;;;5.68;2.60;;;16.60;83.50;;;;;;10130193;28;20513;-59
2021/08/28 06:18:54;;;;;;;6.88;2.33;;;16.40;83.50;;;;;;10129933;28;20138;-58
2021/08/28 06:23:45;;;;;;;6.05;2.20;;;16.50;83.40;;;;;;10136329;28;20131;-58
2021/08/28 06:28:35;;;;;;;7.05;2.63;;;16.60;83.20;;;;;;10131078;22;20059;-60
2021/08/28 06:33:26;;;;;;;3.30;2.03;;;16.80;82.90;;;;;;10067813;28;20514;-61
2021/08/28 06:38:17;;;;;;;4.65;2.40;;;16.70;83.20;;;;;;10089140;28;20070;-60
2021/08/28 06:43:07;;;;;;;7.15;2.80;;;16.70;83.40;;;;;;10087385;28;20029;-60
2021/08/28 06:47:58;;;;;;;4.53;2.40;;;16.60;83.70;;;;;;10086114;28;20048;-61
2021/08/28 06:52:48;;;;;;;5.53;2.75;;;16.60;83.60;;;;;;10071699;28;20029;-62
2021/08/28 06:57:39;;;;;;;4.88;2.50;;;16.60;83.60;;;;;;10087753;28;20491;-62
2021/08/28 07:02:30;;;;;;;5.00;2.53;;;16.80;83.50;;;;;;10081419;28;20080;-61
2021/08/28 07:07:20;;;;;;;6.38;2.75;;;16.90;83.60;;;;;;10086231;28;20178;-61
2021/08/28 07:12:11;;;;;;;5.82;2.60;;;16.80;83.60;;;;;;10086688;28;20013;-62
2021/08/28 07:17:02;;;;;;;8.00;2.70;;;16.80;83.70;;;;;;10086644;28;20029;-62
2021/08/28 07:21:53;;;;;;;4.88;2.50;;;16.90;83.50;;;;;;10086239;28;20033;-62
2021/08/28 07:26:44;;;;;;;3.85;3.00;;;17.00;83.30;;;;;;10084287;28;20146;-61
2021/08/28 07:31:34;;;;;;;4.72;2.70;;;17.00;83.00;;;;;;10082445;28;20065;-61
2021/08/28 07:36:25;;;;;;;5.47;3.03;;;17.10;83.10;;;;;;10086121;28;20033;-61
2021/08/28 07:41:16;;;;;;;5.40;2.63;;;17.20;82.80;;;;;;10084727;28;20024;-61
2021/08/28 07:46:06;;;;;;;5.30;3.63;;;17.30;82.70;;;;;;10086265;28;20282;-62
2021/08/28 07:50:57;;;;;;;10.63;3.35;;;17.30;82.80;;;;;;10081842;28;20425;-62
2021/08/28 07:55:48;;;;;;;5.15;3.05;;;17.20;82.70;;;;;;10084122;28;20041;-61
2021/08/28 08:00:38;;;;;;;5.20;3.28;;;17.20;83.00;;;;;;10083104;28;20021;-62
2021/08/28 08:05:29;;;;;;;3.65;2.80;;;17.20;82.60;;;;;;10083712;28;20032;-62
2021/08/28 08:10:20;;;;;;;6.05;2.92;;;17.10;83.00;;;;;;10084558;28;20021;-61
2021/08/28 08:15:11;;;;;;;4.57;2.53;;;17.00;83.00;;;;;;10085325;28;20411;-61
2021/08/28 08:20:02;;;;;;;4.85;2.70;;;17.10;83.00;;;;;;10085494;28;20495;-61
2021/08/28 08:24:53;;;;;;;6.72;3.05;;;16.80;83.60;;;;;;10083424;28;20190;-62
2021/08/28 08:29:43;;;;;;;6.80;3.63;;;16.70;83.90;;;;;;10078033;28;20167;-61
2021/08/28 08:34:34;;;;;;;6.35;3.30;;;16.90;83.80;;;;;;10083767;28;20025;-61
2021/08/28 08:39:25;;;;;;;6.50;3.35;;;17.20;83.30;;;;;;10081389;28;20317;-62
2021/08/28 08:44:16;;;;;;;3.95;2.97;;;17.60;83.00;;;;;;10085207;28;20052;-61
2021/08/28 08:49:07;;;;;;;4.18;2.65;;;17.80;82.50;;;;;;10067773;28;20623;-61
2021/08/28 08:53:58;;;;;;;5.60;2.40;;;17.80;82.60;;;;;;10083718;28;20033;-62
2021/08/28 08:58:52;;;;;;;5.18;2.80;;;18.00;82.70;;;;;;10076202;28;20613;-61
2021/08/28 09:03:43;;;;;;;4.38;2.88;;;18.10;82.40;;;;;;10065804;28;20036;-62
2021/08/28 09:08:34;;;;;;;4.70;2.70;;;18.30;82.00;;;;;;10083994;28;20444;-62
2021/08/28 09:13:25;;;;;;;5.15;2.80;;;18.60;81.40;;;;;;10071195;28;20025;-62
2021/08/28 09:18:16;;;;;;;4.43;2.72;;;18.70;81.30;;;;;;10075673;28;20632;-62
2021/08/28 09:23:10;;;;;;;4.85;3.15;;;18.60;81.30;;;;;;10092308;28;20017;-61
2021/08/28 09:28:00;;;;;;;8.52;3.05;;;18.30;81.80;;;;;;10085045;28;20167;-62
2021/08/28 09:32:55;;;;;;;5.85;3.47;;;18.40;81.50;;;;;;10086257;28;20052;-62
2021/08/28 09:37:58;;;;;;;6.53;3.63;;;18.30;81.00;;;;;;10086663;28;20060;-62
2021/08/28 09:42:57;;;;;;;8.38;3.90;;;18.60;80.60;;;;;;10090799;28;20036;-62
2021/08/28 09:47:49;;;;;;;5.55;3.88;;;18.70;79.80;;;;;;10086316;28;20084;-62
2021/08/28 09:52:43;;;;;;;5.25;3.90;;;18.60;79.70;;;;;;10088762;28;20036;-62
2021/08/28 09:57:34;;;;;;;6.57;4.68;;;18.50;79.80;;;;;;10088432;28;20041;-62
2021/08/28 10:02:25;;;;;;;6.65;4.30;;;18.40;80.10;;;;;;10086978;28;20025;-62
2021/08/28 10:07:27;;;;;;;5.43;3.28;;;18.30;80.00;;;;;;10089120;28;20083;-62
2021/08/28 10:12:19;;;;;;;6.80;4.05;;;18.00;80.30;;;;;;10086129;28;20021;-62
2021/08/28 10:17:10;;;;;;;7.05;4.00;;;18.00;80.10;;;;;;10086521;28;20021;-63
2021/08/28 10:22:01;;;;;;;6.25;3.83;;;18.10;80.00;;;;;;10068766;28;20107;-62
2021/08/28 10:26:53;;;;;;;5.10;3.30;;;18.20;79.50;;;;;;10087149;28;20037;-62
2021/08/28 10:31:45;;;;;;;4.53;3.58;;;18.40;79.20;;;;;;10088325;28;20037;-63
2021/08/28 10:36:36;;;;;;;5.57;3.70;;;18.50;79.40;;;;;;10069523;28;20479;-62
2021/08/28 10:41:27;;;;;;;4.78;3.08;;;18.70;79.20;;;;;;10089128;28;20021;-62
2021/08/28 10:46:26;;;;;;;4.20;3.13;;;18.70;79.20;;;;;;10087384;28;20041;-63
2021/08/28 10:51:22;;;;;;;6.55;4.03;;;18.80;79.10;;;;;;10086418;28;20024;-62
2021/08/28 10:56:13;;;;;;;6.20;4.22;;;18.90;79.10;;;;;;10082005;28;20052;-62
2021/08/28 11:01:03;;;;;;;8.80;4.97;;;18.80;79.30;;;;;;10087653;28;20056;-62
2021/08/28 11:06:13;;;;;;;8.07;4.35;;;18.50;79.60;;;;;;10052962;28;20517;-62
2021/08/28 11:11:24;;;;;;;7.43;5.38;;;18.80;80.10;;;;;;10085458;28;20028;-62
2021/08/28 11:16:44;;;;;;;6.30;4.35;;;19.00;79.50;;;;;;10082705;28;20071;-62
2021/08/28 11:21:41;;;;;;;7.75;3.70;;;19.00;79.60;;;;;;10085991;28;20107;-61
2021/08/28 11:26:34;;;;;;;7.68;4.70;;;18.90;80.00;;;;;;10084978;28;20086;-62
2021/08/28 11:31:44;;;;;;;6.10;4.57;;;18.90;80.10;;;;;;10085513;28;20411;-62
2021/08/28 11:36:34;;;;;;;8.20;4.85;;;18.70;79.90;;;;;;10085756;28;20024;-62
2021/08/28 11:41:26;;;;;;;7.10;4.70;;;18.60;80.20;;;;;;10082432;28;20025;-62
2021/08/28 11:46:26;;;;;;;7.38;5.07;;;18.60;79.90;;;;;;10083875;28;20119;-63
2021/08/28 11:51:22;;;;;;;8.98;4.57;;;18.40;80.10;;;;;;10084032;28;20033;-62
2021/08/28 11:56:16;;;;;;;6.53;4.28;;;18.40;80.30;;;;;;10068863;28;20531;-61
2021/08/28 12:01:07;;;;;;;6.75;4.53;;;18.40;80.00;;;;;;10080488;28;20465;-62
2021/08/28 12:05:57;;;;;;;4.80;3.95;;;18.50;79.70;;;;;;10083815;28;20379;-63
2021/08/28 12:10:48;;;;;;;4.57;3.55;;;18.40;79.90;;;;;;10083580;28;20025;-62
2021/08/28 12:15:40;;;;;;;3.85;2.72;;;18.30;80.30;;;;;;10084743;28;20025;-62
2021/08/28 12:20:32;;;;;;;5.30;3.72;;;18.40;80.40;;;;;;10087095;28;20032;-63
2021/08/28 12:25:23;;;;;;;3.47;3.03;;;19.00;79.30;;;;;;10084824;28;20509;-63
2021/08/28 12:30:14;;;;;;;6.85;3.17;;;19.60;78.40;;;;;;10082005;28;20069;-62
2021/08/28 12:35:06;;;;;;;5.03;2.83;;;20.10;77.60;;;;;;10081202;28;20057;-62
2021/08/28 12:40:03;;;;;;;3.22;2.22;;;20.50;76.70;;;;;;10081858;28;20074;-62
2021/08/28 12:44:57;;;;;;;2.65;2.33;;;20.90;75.80;;;;;;10089319;28;20479;-62
2021/08/28 12:49:51;;;;;;;5.97;4.10;;;20.90;75.30;;;;;;10091154;28;20033;-62
2021/08/28 12:54:56;;;;;;;5.97;3.57;;;20.40;75.50;;;;;;10093468;28;20025;-62
2021/08/28 12:59:50;;;;;;;5.88;2.83;;;19.90;75.80;;;;;;10090627;28;20017;-62
2021/08/28 13:04:41;;;;;;;3.70;2.53;;;19.60;76.20;;;;;;10090838;28;20139;-63
2021/08/28 13:09:31;;;;;;;3.47;2.92;;;19.30;75.80;;;;;;10092357;28;20139;-62
2021/08/28 13:14:22;;;;;;;3.60;2.55;;;19.40;75.40;;;;;;10091784;28;20426;-62
2021/08/28 13:19:14;;;;;;;5.15;2.78;;;19.60;74.90;;;;;;10090847;28;20028;-62
2021/08/28 13:24:17;;;;;;;3.88;2.42;;;19.80;74.60;;;;;;10091736;28;20047;-62
2021/08/28 13:29:27;;;;;;;3.42;2.33;;;19.70;74.50;;;;;;10087256;28;20120;-62
2021/08/28 13:34:18;;;;;;;2.88;1.90;;;19.30;75.00;;;;;;10090817;28;20028;-62
2021/08/28 13:39:09;;;;;;;3.42;2.55;;;19.20;75.20;;;;;;10090204;28;20047;-62
2021/08/28 13:43:59;;;;;;;3.17;2.13;;;19.40;74.70;;;;;;10076084;28;20124;-62
2021/08/28 13:48:50;;;;;;;3.83;2.30;;;19.20;74.80;;;;;;10071563;28;20028;-62
2021/08/28 13:53:40;;;;;;;1.73;1.60;;;19.20;75.40;;;;;;10090798;28;20037;-62
2021/08/28 13:58:31;;;;;;;2.63;1.92;;;19.00;75.20;;;;;;10088746;28;20028;-62
2021/08/28 14:03:22;;;;;;;4.30;2.15;;;19.00;75.40;;;;;;10089825;28;20048;-62
2021/08/28 14:08:13;;;;;;;4.75;1.75;;;18.90;75.80;;;;;;10090714;28;20455;-62
2021/08/28 14:13:04;;;;;;;2.22;1.80;;;18.80;76.20;;;;;;10091241;28;20091;-63
2021/08/28 14:17:54;;;;;;;2.40;1.95;;;18.80;76.50;;;;;;10090354;28;20025;-62
2021/08/28 14:22:45;;;;;;;5.60;1.73;;;18.80;76.70;;;;;;10070213;28;20371;-62
2021/08/28 14:27:36;;;;;;;2.47;1.92;;;18.90;76.80;;;;;;10089037;28;20499;-62
2021/08/28 14:32:26;;;;;;;4.10;2.08;;;18.90;76.80;;;;;;10081502;28;20514;-62
2021/08/28 14:37:17;;;;;;;4.63;2.38;;;18.80;77.30;;;;;;10089298;28;20104;-62
2021/08/28 14:42:08;;;;;;;3.55;2.22;;;18.80;77.80;;;;;;10089415;28;20060;-62
2021/08/28 14:47:00;;;;;;;4.03;1.95;;;18.80;77.70;;;;;;10089673;28;20037;-63
2021/08/28 14:51:51;;;;;;;5.15;2.88;;;18.80;78.00;;;;;;10087882;28;20488;-62
2021/08/28 14:56:42;;;;;;;2.90;2.25;;;18.60;78.50;;;;;;10086305;28;20021;-62
2021/08/28 15:01:33;;;;;;;4.13;2.47;;;18.50;79.10;;;;;;10084927;28;20399;-62
2021/08/28 15:06:23;;;;;;;3.13;2.60;;;18.50;79.10;;;;;;10086280;28;20268;-62
2021/08/28 15:11:14;;;;;;;2.05;1.50;;;18.80;78.60;;;;;;10091121;28;20033;-62
2021/08/28 15:16:05;;;;;;;4.28;2.30;;;19.10;78.20;;;;;;10089645;28;20037;-62
2021/08/28 15:20:56;;;;;;;2.08;1.85;;;19.20;78.20;;;;;;10084211;28;20027;-62
2021/08/28 15:25:46;;;;;;;3.60;2.35;;;19.40;78.10;;;;;;10086063;28;20498;-62
2021/08/28 15:30:37;;;;;;;5.97;2.20;;;19.10;78.40;;;;;;10083898;28;20098;-62
2021/08/28 15:35:27;;;;;;;3.33;2.10;;;18.80;79.20;;;;;;10086943;28;20550;-62
2021/08/28 15:40:18;;;;;;;2.65;1.90;;;19.00;79.00;;;;;;10080585;28;20028;-62
2021/08/28 15:45:10;;;;;;;3.67;1.77;;;19.30;78.70;;;;;;10088082;28;20068;-62
2021/08/28 15:50:01;;;;;;;3.42;1.15;;;19.50;78.60;;;;;;10085454;28;20037;-63
2021/08/28 15:54:54;;;;;;;3.05;1.50;;;19.70;78.50;;;;;;10065457;28;20395;-63
2021/08/28 15:59:45;;;;;;;1.60;1.35;;;19.90;77.80;;;;;;10086276;28;20284;-62
2021/08/28 16:04:37;;;;;;;2.30;1.38;;;19.70;78.30;;;;;;10068329;28;20028;-62
2021/08/28 16:09:27;;;;;;;3.50;1.48;;;19.70;78.30;;;;;;10086909;28;20555;-62
2021/08/28 16:14:18;;;;;;;1.92;1.48;;;19.50;79.50;;;;;;10086257;28;20274;-62
2021/08/28 16:19:10;;;;;;;3.08;1.63;;;19.20;78.70;;;;;;10084797;28;20025;-62
2021/08/28 16:24:01;;;;;;;3.25;1.60;;;18.90;79.10;;;;;;10083587;28;20021;-62
2021/08/28 16:28:51;;;;;;;2.20;1.70;;;18.90;79.20;;;;;;10085406;28;20048;-62
2021/08/28 16:33:42;;;;;;;2.45;1.50;;;18.80;78.90;;;;;;10085659;28;20053;-61
2021/08/28 16:38:33;;;;;;;1.73;1.38;;;18.60;79.20;;;;;;10067171;28;20037;-63
2021/08/28 16:43:24;;;;;;;2.22;1.40;;;18.60;79.00;;;;;;10086409;28;20025;-63
2021/08/28 16:48:14;;;;;;;2.97;2.08;;;18.70;78.90;;;;;;10084625;28;20040;-61
2021/08/28 16:53:05;;;;;;;3.15;1.50;;;18.90;78.70;;;;;;10083729;28;20027;-61
2021/08/28 16:57:56;;;;;;;2.55;1.55;;;19.20;77.80;;;;;;10083157;28;20063;-62
2021/08/28 17:02:47;;;;;;;2.70;2.40;;;19.00;78.50;;;;;;10082447;28;20025;-62
2021/08/28 17:07:38;;;;;;;3.30;1.95;;;19.00;78.60;;;;;;10072328;28;20048;-62
2021/08/28 17:12:28;;;;;;;1.98;1.50;;;18.80;78.60;;;;;;10084933;28;20503;-62
2021/08/28 17:17:19;;;;;;;3.03;1.52;;;18.80;78.90;;;;;;10081493;28;20025;-62
2021/08/28 17:22:13;;;;;;;2.58;1.60;;;18.70;79.10;;;;;;10081612;28;20059;-62
2021/08/28 17:27:05;;;;;;;2.17;1.80;;;18.60;79.50;;;;;;10082080;28;20033;-62
2021/08/28 17:31:56;;;;;;;2.08;1.50;;;18.60;79.30;;;;;;10089892;28;20052;-62
2021/08/28 17:36:47;;;;;;;3.05;1.70;;;18.60;79.60;;;;;;10091253;28;20115;-62
2021/08/28 17:41:38;;;;;;;4.15;2.10;;;18.60;79.20;;;;;;10089539;28;20129;-62
2021/08/28 17:46:29;;;;;;;2.70;1.73;;;18.40;79.70;;;;;;10089187;28;20049;-61
2021/08/28 17:51:20;;;;;;;7.15;2.33;;;18.30;80.00;;;;;;10088877;28;20021;-62
2021/08/28 17:56:10;;;;;;;4.60;3.10;;;18.20;80.20;;;;;;10089463;28;20076;-62
2021/08/28 18:01:03;;;;;;;4.95;2.97;;;18.10;80.10;;;;;;10091281;28;20392;-60
2021/08/28 18:05:54;;;;;;;4.30;3.30;;;18.10;80.40;;;;;;10091558;28;20435;-61
2021/08/28 18:10:45;;;;;;;5.00;3.42;;;18.10;80.50;;;;;;10090956;28;20032;-61
2021/08/28 18:15:35;;;;;;;6.60;4.15;;;18.20;80.60;;;;;;10089769;28;20099;-62
2021/08/28 18:20:26;;;;;;;5.32;3.72;;;18.20;81.10;;;;;;10086795;28;20029;-61
2021/08/28 18:25:17;;;;;;;7.22;4.07;;;18.10;81.20;;;;;;10090221;28;20490;-61
2021/08/28 18:30:08;;;;;;;7.95;5.88;;;18.10;81.50;;;;;;10087579;28;20190;-61
2021/08/28 18:34:59;;;;;;;5.85;4.22;;;17.90;81.60;;;;;;10088381;28;20086;-62
2021/08/28 18:39:50;;;;;;;6.15;3.85;;;17.70;82.20;;;;;;10084192;28;20075;-62
2021/08/28 18:44:41;;;;;;;7.22;3.92;;;17.60;82.30;;;;;;10087013;28;20029;-62
2021/08/28 18:49:31;;;;;;;8.20;5.03;;;17.60;82.40;;;;;;10086208;28;20051;-62
2021/08/28 18:54:23;;;;;;;9.73;5.30;;;17.50;82.50;;;;;;10084119;28;20029;-62
2021/08/28 18:59:14;;;;;;;8.80;4.20;;;17.50;82.80;;;;;;10086862;28;20036;-61
2021/08/28 19:04:05;;;;;;;5.88;4.32;;;17.70;83.00;;;;;;10087678;28;20051;-62
2021/08/28 19:08:55;;;;;;;5.28;4.82;;;17.60;82.90;;;;;;10085389;28;20634;-62
2021/08/28 19:13:46;;;;;;;7.03;3.28;;;17.50;83.00;;;;;;10087830;28;20040;-62
2021/08/28 19:18:36;;;;;;;7.07;3.63;;;17.60;83.20;;;;;;10065762;28;20124;-62
2021/08/28 19:23:27;;;;;;;5.20;3.47;;;17.50;83.20;;;;;;10070380;28;20078;-62
2021/08/28 19:28:18;;;;;;;6.63;3.90;;;17.40;83.40;;;;;;10085459;28;20129;-61
2021/08/28 19:33:09;;;;;;;5.55;3.67;;;17.40;83.60;;;;;;10083545;28;20027;-62
2021/08/28 19:38:01;;;;;;;6.30;3.60;;;17.30;83.80;;;;;;10085820;28;20322;-62
2021/08/28 19:42:52;;;;;;;9.63;4.47;;;17.30;84.20;;;;;;10080513;28;20153;-62
2021/08/28 19:47:44;;;;;;;7.75;4.57;;;17.20;84.20;;;;;;10083906;28;20045;-62
2021/08/28 19:52:34;;;;;;;7.40;4.60;;;17.20;84.60;;;;;;10083716;28;20735;-61
2021/08/28 19:57:25;;;;;;;8.80;5.15;;;17.20;84.70;;;;;;10085323;28;20035;-61
2021/08/28 20:02:16;;;;;;;10.30;5.53;;;17.10;85.00;;;;;;10066656;28;20029;-61
2021/08/28 20:07:06;;;;;;;10.57;6.10;;;17.10;85.20;;;;;;10083274;28;20068;-62
2021/08/28 20:11:57;;;;;;;9.18;5.63;;;17.10;85.40;;;;;;10083928;28;20021;-62
2021/08/28 20:16:48;;;;;;;9.07;5.82;;;17.20;85.50;;;;;;10080535;28;20029;-62
2021/08/28 20:21:39;;;;;;;11.63;5.40;;;17.20;85.60;;;;;;10079452;28;20028;-61
2021/08/28 20:26:30;;;;;;;10.20;6.20;;;17.30;85.80;;;;;;10082864;28;20127;-61
2021/08/28 20:31:20;;;;;;;9.50;6.63;;;17.10;86.00;;;;;;10082638;28;20131;-62
2021/08/28 20:36:11;;;;;;;9.43;5.53;;;17.20;86.40;;;;;;10084723;28;20060;-62
2021/08/28 20:41:03;;;;;;;10.32;6.60;;;17.30;86.40;;;;;;10081030;28;20032;-62
2021/08/28 20:45:54;;;;;;;9.55;5.50;;;17.30;86.70;;;;;;10080650;28;20115;-62
2021/08/28 20:50:45;;;;;;;9.65;5.60;;;17.20;86.90;;;;;;10081689;28;20029;-62
2021/08/28 20:55:36;;;;;;;8.35;5.63;;;17.20;87.00;;;;;;10082215;28;20041;-62
2021/08/28 21:00:26;;;;;;;7.03;4.45;;;17.20;87.20;;;;;;10083945;28;20564;-63
2021/08/28 21:05:17;;;;;;;10.18;6.35;;;17.20;87.30;;;;;;10087911;28;20044;-62
2021/08/28 21:10:08;;;;;;;9.20;5.43;;;17.20;87.60;;;;;;10091867;28;20032;-62
2021/08/28 21:14:59;;;;;;;9.10;6.03;;;17.10;87.70;;;;;;10090491;28;20504;-62
2021/08/28 21:19:50;;;;;;;8.63;5.43;;;17.20;87.70;;;;;;10087650;28;20158;-62
2021/08/28 21:24:42;;;;;;;8.52;5.40;;;17.20;87.90;;;;;;10085200;28;20025;-62
2021/08/28 21:29:33;;;;;;;8.43;5.20;;;17.20;87.90;;;;;;10066257;28;20045;-61
2021/08/28 21:34:23;;;;;;;9.07;5.75;;;17.20;88.10;;;;;;10089114;28;20035;-62
2021/08/28 21:39:14;;;;;;;9.75;6.40;;;17.20;88.20;;;;;;10089787;28;20108;-61
2021/08/28 21:44:05;;;;;;;8.15;5.95;;;17.20;88.20;;;;;;10088026;28;20249;-60
2021/08/28 21:48:56;;;;;;;7.95;5.45;;;17.20;88.30;;;;;;10087163;28;20321;-61
2021/08/28 21:53:46;;;;;;;9.57;6.00;;;17.20;88.40;;;;;;10088503;28;20558;-60
2021/08/28 21:58:37;;;;;;;9.23;5.30;;;17.10;88.70;;;;;;10089534;28;20020;-61
2021/08/28 22:03:29;;;;;;;8.60;5.70;;;16.90;89.00;;;;;;10088907;28;20387;-62
2021/08/28 22:08:20;;;;;;;7.82;4.80;;;16.80;89.20;;;;;;10089189;28;20041;-62
2021/08/28 22:13:10;;;;;;;6.88;5.07;;;16.70;89.40;;;;;;10089545;28;20029;-62
2021/08/28 22:18:01;;;;;;;8.73;5.38;;;16.60;89.70;;;;;;10085371;28;20071;-62
2021/08/28 22:22:53;;;;;;;8.55;5.45;;;16.50;89.90;;;;;;10089153;28;20056;-62
2021/08/28 22:27:43;;;;;;;6.55;4.60;;;16.50;90.00;;;;;;10086878;28;20051;-62
2021/08/28 22:32:34;;;;;;;10.10;5.57;;;16.40;90.00;;;;;;10086556;28;20124;-62
2021/08/28 22:37:25;;;;;;;7.60;5.03;;;16.40;90.00;;;;;;10087937;28;20517;-61
2021/08/28 22:42:16;;;;;;;7.22;4.72;;;16.40;90.00;;;;;;10086808;28;20116;-61
2021/08/28 22:47:07;;;;;;;7.43;4.72;;;16.40;90.40;;;;;;10066937;28;20175;-61
2021/08/28 22:51:57;;;;;;;6.82;4.97;;;16.30;90.20;;;;;;10088055;28;20029;-60
2021/08/28 22:56:48;;;;;;;8.55;4.85;;;16.30;90.30;;;;;;10090028;28;20025;-61
2021/08/28 23:01:39;;;;;;;9.63;5.95;;;16.20;90.60;;;;;;10085785;28;20106;-62
2021/08/28 23:06:29;;;;;;;10.80;5.40;;;16.10;90.60;;;;;;10086907;28;20038;-62
2021/08/28 23:11:20;;;;;;;7.60;4.63;;;16.00;90.80;;;;;;10084830;28;21760;-62
2021/08/28 23:16:11;;;;;;;7.15;4.15;;;16.00;90.80;;;;;;10086918;28;20030;-62
2021/08/28 23:21:03;;;;;;;7.07;5.03;;;16.00;90.90;;;;;;10068739;28;20028;-61
2021/08/28 23:25:53;;;;;;;6.95;3.60;;;15.90;91.00;;;;;;10085366;28;20029;-63
2021/08/28 23:30:44;;;;;;;8.77;4.15;;;15.90;91.10;;;;;;10085871;28;20088;-62
2021/08/28 23:35:35;;;;;;;5.65;4.32;;;16.00;91.00;;;;;;10085006;28;20117;-62
2021/08/28 23:40:25;;;;;;;5.78;3.28;;;16.00;91.00;;;;;;10085303;28;20423;-62
2021/08/28 23:45:16;;;;;;;5.68;3.13;;;16.00;91.00;;;;;;10086445;28;20025;-62
2021/08/28 23:50:08;;;;;;;5.82;2.60;;;15.90;91.10;;;;;;10085283;28;20033;-62
2021/08/28 23:54:58;;;;;;;5.32;2.88;;;15.90;91.00;;;;;;10086452;28;20505;-62
2021/08/28 23:59:49;;;;;;;4.55;2.90;;;16.00;91.00;;;;;;10086097;28;20045;-62
